Stations météo

Publicité
Chatillon/Seine, France (7276): Température de l'air & dewpoint: 15.06.2018 01:00:00 - 21.06.2018 01:00:00 (CEST)Chatillon/Seine, France (7276): Vitesse du vent & gusts: 15.06.2018 01:00:00 - 21.06.2018 01:00:00 (CEST)Chatillon/Seine, France (7276): Direction du vent: 15.06.2018 01:00:00 - 21.06.2018 01:00:00 (CEST)Chatillon/Seine, France (7276): Ensoleillement: 15.06.2018 01:00:00 - 21.06.2018 01:00:00 (CEST)Chatillon/Seine, France (7276): Quantités de précipitations: 15.06.2018 01:00:00 - 21.06.2018 01:00:00 (CEST)
Date & Time tt [°C] td [°C] ff [km/h] ff [knt] fx [km/h] fx [knt] dd sd [min] rr [mm]
21.06.2018 01:00:00 - - - - - - - - -
21.06.2018 00:00:00 16,3 13,8 8 4 8 4 S 0 0,0
20.06.2018 23:00:00 18,3 14,0 2 1 5 3 SSE 0 0,0
20.06.2018 22:00:00 22,2 13,8 2 1 8 4 NNW 0 0,0
20.06.2018 21:00:00 25,3 13,2 5 3 21 11 NNW 54 0,0
20.06.2018 20:00:00 26,9 14,0 13 7 26 14 NNW 60 -
20.06.2018 19:00:00 28,0 14,3 15 8 26 14 NNW 60 0,0
20.06.2018 18:00:00 28,5 15,1 11 6 24 13 NNW 60 0,0
20.06.2018 17:00:00 28,9 15,1 8 4 24 13 NNW 60 0,0
20.06.2018 16:00:00 29,0 15,5 9 5 24 13 NNW 60 0,0
20.06.2018 15:00:00 28,2 15,5 11 6 29 16 N 60 0,0
20.06.2018 14:00:00 27,5 16,8 5 3 16 9 NW 60 -
20.06.2018 13:00:00 26,4 15,1 5 3 16 9 N 60 0,0
20.06.2018 12:00:00 25,0 15,9 8 4 22 12 N 60 0,0
20.06.2018 11:00:00 22,8 16,4 8 4 13 7 N 60 0,0
20.06.2018 10:00:00 20,3 16,1 5 3 13 7 NNW 60 0,0
20.06.2018 09:00:00 18,2 15,6 8 4 13 7 NE 60 0,0
20.06.2018 08:00:00 15,7 15,4 4 2 8 4 NNE 60 -
20.06.2018 07:00:00 12,4 12,1 0 0 5 3 N 48 0,0
20.06.2018 06:00:00 11,0 10,4 0 0 4 2 N 0 0,0
20.06.2018 05:00:00 11,8 11,2 0 0 4 2 N 0 0,0
20.06.2018 04:00:00 12,5 11,9 0 0 8 4 N 0 0,0
20.06.2018 03:00:00 13,0 12,2 4 2 8 4 NE 0 0,0
20.06.2018 02:00:00 13,6 12,7 4 2 11 6 SSE 0 -
20.06.2018 01:00:00 14,9 13,8 8 4 11 6 ENE 0 0,0
20.06.2018 00:00:00 15,7 13,7 5 3 11 6 ENE 0 0,0
19.06.2018 23:00:00 16,6 13,9 2 1 18 10 ENE 0 0,0
19.06.2018 22:00:00 18,2 14,7 8 4 18 10 NNE 0 0,0
19.06.2018 21:00:00 21,0 15,3 15 8 24 13 NNE 60 0,0
19.06.2018 20:00:00 23,1 15,9 13 7 22 12 N 60 -
19.06.2018 19:00:00 24,1 15,6 15 8 24 13 N 60 0,0
19.06.2018 18:00:00 24,9 15,8 11 6 26 14 N 60 0,0
19.06.2018 17:00:00 24,7 16,1 13 7 28 15 NNW 60 0,0
19.06.2018 16:00:00 24,4 16,1 11 6 26 14 NW 60 0,0
19.06.2018 15:00:00 24,3 16,0 8 4 24 13 NNE 48 0,0
19.06.2018 14:00:00 23,3 15,1 9 5 18 10 NE 48 -
19.06.2018 13:00:00 22,2 14,8 5 3 16 9 NNW 48 0,0
19.06.2018 12:00:00 21,6 14,5 5 3 16 9 NW 48 0,0
19.06.2018 11:00:00 20,6 15,2 5 3 15 8 N 18 0,0
19.06.2018 10:00:00 20,2 14,8 8 4 16 9 NNW 48 0,0
19.06.2018 09:00:00 18,2 14,7 8 4 15 8 NNW 60 0,0
19.06.2018 08:00:00 15,6 15,1 2 1 5 3 WNW 60 -
19.06.2018 07:00:00 13,3 12,8 0 0 8 4 N 48 0,0
19.06.2018 06:00:00 12,5 12,0 5 3 8 4 SSW 0 0,0
19.06.2018 05:00:00 13,4 12,8 0 0 8 4 N 0 0,0
19.06.2018 04:00:00 13,4 12,9 4 2 5 3 S 0 0,0
19.06.2018 03:00:00 13,1 12,3 4 2 8 4 S 0 0,0
19.06.2018 02:00:00 13,7 12,8 0 0 11 6 N 0 -
19.06.2018 01:00:00 14,3 13,3 9 5 13 7 SSW 0 0,0
19.06.2018 00:00:00 15,3 13,8 8 4 11 6 S 0 0,0
18.06.2018 23:00:00 15,6 14,3 11 6 11 6 S 0 0,0
18.06.2018 22:00:00 16,0 14,0 9 5 11 6 S 0 0,0
18.06.2018 21:00:00 18,9 14,6 8 4 13 7 S 42 0,0
18.06.2018 20:00:00 20,1 14,5 9 5 13 7 SSW 42 -
18.06.2018 19:00:00 20,2 15,0 5 3 11 6 SSW 6 0,0
18.06.2018 18:00:00 19,5 13,9 8 4 13 7 W 0 0,0
18.06.2018 17:00:00 19,5 13,4 8 4 15 8 W 0 0,0
18.06.2018 16:00:00 20,1 13,1 5 3 18 10 SW 0 0,0
18.06.2018 15:00:00 18,9 13,3 11 6 18 10 W 0 0,0
18.06.2018 14:00:00 19,4 13,8 11 6 26 14 SSW 0 -
18.06.2018 13:00:00 18,4 13,5 5 3 18 10 W 0 0,0
18.06.2018 12:00:00 18,2 13,3 11 6 21 11 W 0 0,0
18.06.2018 11:00:00 18,4 13,5 8 4 18 10 WSW 18 0,0
18.06.2018 10:00:00 17,3 12,6 5 3 13 7 W 6 0,0
18.06.2018 09:00:00 14,9 12,8 8 4 11 6 SSW 0 0,0
18.06.2018 08:00:00 12,7 12,5 4 2 5 3 SSE 0 -
18.06.2018 07:00:00 11,0 10,7 0 0 5 3 N 0 0,0
18.06.2018 06:00:00 9,5 9,0 2 1 9 5 SSW 0 0,0
18.06.2018 05:00:00 9,1 8,6 8 4 11 6 S 0 0,0
18.06.2018 04:00:00 9,5 8,7 8 4 9 5 S 0 0,0
18.06.2018 03:00:00 10,4 9,3 4 2 8 4 SSW 0 0,0
18.06.2018 02:00:00 11,4 10,3 4 2 9 5 S 0 -
18.06.2018 01:00:00 12,3 11,4 8 4 9 5 SSW 0 0,0
18.06.2018 00:00:00 13,6 12,3 5 3 8 4 SW 0 0,0
17.06.2018 23:00:00 13,2 11,3 4 2 5 3 S 0 0,0
17.06.2018 22:00:00 16,7 11,4 0 0 8 4 N 0 0,0
17.06.2018 21:00:00 19,0 11,3 4 2 8 4 W 36 0,0
17.06.2018 20:00:00 20,4 10,8 5 3 18 10 WNW 36 -
17.06.2018 19:00:00 20,2 9,7 11 6 21 11 W 24 0,0
17.06.2018 18:00:00 20,4 11,1 8 4 22 12 SW 30 0,0
17.06.2018 17:00:00 20,0 11,0 11 6 22 12 WSW 30 0,0
17.06.2018 16:00:00 19,4 10,9 13 7 24 13 W 0 0,0
17.06.2018 15:00:00 18,8 11,1 11 6 24 13 W 0 0,0
17.06.2018 14:00:00 18,5 12,0 13 7 24 13 W 0 -
17.06.2018 13:00:00 18,2 11,7 11 6 34 18 W 0 0,0
17.06.2018 12:00:00 18,2 12,4 9 5 28 15 W 18 0,0
17.06.2018 11:00:00 18,0 12,2 11 6 22 12 W 0 0,0
17.06.2018 10:00:00 17,3 12,6 9 5 22 12 W 12 0,0
17.06.2018 09:00:00 16,2 12,7 8 4 16 9 W 0 0,0
17.06.2018 08:00:00 15,6 12,7 8 4 15 8 WSW 0 -
17.06.2018 07:00:00 15,0 13,2 8 4 11 6 SSW 0 0,0
17.06.2018 06:00:00 14,7 13,4 8 4 11 6 SSW 0 0,0
17.06.2018 05:00:00 14,5 13,4 8 4 11 6 SSW 0 0,0
17.06.2018 04:00:00 14,5 13,4 5 3 8 4 SSW 0 0,0
17.06.2018 03:00:00 14,4 13,3 2 1 8 4 S 0 0,0
17.06.2018 02:00:00 14,2 13,2 5 3 9 5 S 0 -
17.06.2018 01:00:00 13,5 12,4 5 3 9 5 SW 0 0,0
17.06.2018 00:00:00 14,7 12,2 4 2 8 4 S 0 0,0
16.06.2018 23:00:00 15,9 12,5 4 2 11 6 ESE 0 0,0
16.06.2018 22:00:00 17,9 12,3 5 3 15 8 N 0 0,0
16.06.2018 21:00:00 20,8 12,2 9 5 18 10 NNW 60 0,0
16.06.2018 20:00:00 22,6 12,2 9 5 21 11 NW 30 -
16.06.2018 19:00:00 22,8 12,7 9 5 22 12 NW 30 0,0
16.06.2018 18:00:00 22,0 12,5 9 5 21 11 WNW 12 0,0
16.06.2018 17:00:00 22,2 13,3 8 4 21 11 W 12 0,0
16.06.2018 16:00:00 21,0 14,6 8 4 15 8 W 0 0,0
16.06.2018 15:00:00 21,2 15,5 8 4 16 9 WSW 6 0,0
16.06.2018 14:00:00 18,2 16,5 8 4 39 21 WNW 6 -
16.06.2018 13:00:00 21,7 15,5 8 4 21 11 WSW 0 0,0
16.06.2018 12:00:00 21,3 15,8 8 4 15 8 W 12 0,0
16.06.2018 11:00:00 20,4 16,4 9 5 13 7 S 6 0,0
16.06.2018 10:00:00 18,9 15,8 8 4 11 6 SSW 36 0,0
16.06.2018 09:00:00 16,2 15,2 8 4 13 7 SSW 24 0,0
16.06.2018 08:00:00 14,2 13,9 4 2 8 4 SSW 36 -
16.06.2018 07:00:00 10,9 10,6 0 0 9 5 N 6 0,0
16.06.2018 06:00:00 9,3 8,7 4 2 9 5 SE 0 0,0
16.06.2018 05:00:00 9,5 9,0 8 4 11 6 S 0 0,0
16.06.2018 04:00:00 9,4 8,6 8 4 11 6 SSE 0 0,0
16.06.2018 03:00:00 10,6 10,0 9 5 11 6 SW 0 0,0
16.06.2018 02:00:00 10,6 9,8 0 0 5 3 N 0 -
16.06.2018 01:00:00 11,3 10,2 2 1 9 5 S 0 0,0
16.06.2018 00:00:00 12,7 10,9 8 4 9 5 S 0 0,0
15.06.2018 23:00:00 14,0 12,0 4 2 8 4 S 0 0,0
15.06.2018 22:00:00 16,4 12,2 4 2 11 6 SE 0 0,0
15.06.2018 21:00:00 21,0 11,1 8 4 15 8 NNW 60 0,0
15.06.2018 20:00:00 22,5 11,2 8 4 18 10 N 60 -
15.06.2018 19:00:00 22,8 10,9 13 7 21 11 NNW 30 0,0
15.06.2018 18:00:00 22,6 11,3 11 6 24 13 WNW 24 0,0
15.06.2018 17:00:00 22,3 12,8 8 4 24 13 NNW 24 0,0
15.06.2018 16:00:00 23,1 13,0 9 5 21 11 N 54 0,0
15.06.2018 15:00:00 21,7 13,6 8 4 24 13 NNW 42 0,0
15.06.2018 14:00:00 20,8 15,1 8 4 16 9 N 0 -
15.06.2018 13:00:00 19,4 14,2 8 4 15 8 N 0 0,0
15.06.2018 12:00:00 18,3 14,0 5 3 15 8 NW 0 0,0
15.06.2018 11:00:00 18,9 13,5 4 2 9 5 W 12 0,0
15.06.2018 10:00:00 18,1 14,8 2 1 9 5 NNE 30 0,0
15.06.2018 09:00:00 16,4 14,9 4 2 8 4 N 18 0,0
15.06.2018 08:00:00 14,5 13,5 4 2 8 4 W 0 -
15.06.2018 07:00:00 13,9 13,3 0 0 5 3 N 0 0,0
15.06.2018 06:00:00 13,6 13,0 4 2 5 3 SSW 0 0,0
15.06.2018 05:00:00 13,7 13,1 4 2 8 4 SSW 0 0,0
15.06.2018 04:00:00 13,9 13,1 4 2 9 5 S 0 0,0
15.06.2018 03:00:00 14,2 13,4 4 2 8 4 SSE 0 0,0
15.06.2018 02:00:00 14,2 13,4 2 1 5 3 W 0 -
15.06.2018 01:00:00 14,2 13,4 0 0 4 2 N 0 0,0

tt = Température de l'air
td = dewpoint
ff = Vitesse du vent
fx = gusts
dd = Direction du vent
sd = Ensoleillement
rr = Quantités de précipitations

stations d'obs. à proximité